sensor_id;sensor_type;location;lat;lon;timestamp;P1;durP1;ratioP1;P2;durP2;ratioP2
13102;SDS011;52970;46.752;17.108;2022-07-04T00:00:18;2.97;;;2.78;;
13102;SDS011;52970;46.752;17.108;2022-07-04T00:02:44;2.95;;;2.75;;
13102;SDS011;52970;46.752;17.108;2022-07-04T00:05:10;3.15;;;2.80;;
13102;SDS011;52970;46.752;17.108;2022-07-04T00:07:36;5.90;;;2.83;;
13102;SDS011;52970;46.752;17.108;2022-07-04T00:10:01;2.85;;;2.65;;
13102;SDS011;52970;46.752;17.108;2022-07-04T00:12:29;3.25;;;3.05;;
13102;SDS011;52970;46.752;17.108;2022-07-04T00:14:55;3.47;;;3.17;;
13102;SDS011;52970;46.752;17.108;2022-07-04T00:17:20;4.05;;;3.13;;
13102;SDS011;52970;46.752;17.108;2022-07-04T00:19:45;3.35;;;3.08;;
13102;SDS011;52970;46.752;17.108;2022-07-04T00:22:10;5.30;;;3.13;;
13102;SDS011;52970;46.752;17.108;2022-07-04T00:24:36;6.03;;;2.97;;
13102;SDS011;52970;46.752;17.108;2022-07-04T00:27:01;3.20;;;2.90;;
13102;SDS011;52970;46.752;17.108;2022-07-04T00:29:26;3.25;;;2.80;;
13102;SDS011;52970;46.752;17.108;2022-07-04T00:31:51;3.53;;;3.17;;
13102;SDS011;52970;46.752;17.108;2022-07-04T00:34:17;3.90;;;3.50;;
13102;SDS011;52970;46.752;17.108;2022-07-04T00:36:42;2.95;;;2.75;;
13102;SDS011;52970;46.752;17.108;2022-07-04T00:39:07;3.22;;;3.00;;
13102;SDS011;52970;46.752;17.108;2022-07-04T00:41:32;3.47;;;3.17;;
13102;SDS011;52970;46.752;17.108;2022-07-04T00:44:05;3.38;;;3.08;;
13102;SDS011;52970;46.752;17.108;2022-07-04T00:46:30;3.10;;;2.80;;
13102;SDS011;52970;46.752;17.108;2022-07-04T00:48:56;3.45;;;3.15;;
13102;SDS011;52970;46.752;17.108;2022-07-04T00:51:21;3.28;;;2.70;;
13102;SDS011;52970;46.752;17.108;2022-07-04T00:53:47;4.35;;;3.25;;
13102;SDS011;52970;46.752;17.108;2022-07-04T00:56:13;3.40;;;3.13;;
13102;SDS011;52970;46.752;17.108;2022-07-04T00:58:38;3.38;;;2.83;;
13102;SDS011;52970;46.752;17.108;2022-07-04T01:01:03;5.20;;;3.30;;
13102;SDS011;52970;46.752;17.108;2022-07-04T01:03:28;5.63;;;3.30;;
13102;SDS011;52970;46.752;17.108;2022-07-04T01:05:54;3.65;;;3.10;;
13102;SDS011;52970;46.752;17.108;2022-07-04T01:08:20;3.70;;;3.17;;
13102;SDS011;52970;46.752;17.108;2022-07-04T01:10:46;3.30;;;2.97;;
13102;SDS011;52970;46.752;17.108;2022-07-04T01:13:29;5.22;;;2.97;;
13102;SDS011;52970;46.752;17.108;2022-07-04T01:15:54;3.97;;;3.00;;
13102;SDS011;52970;46.752;17.108;2022-07-04T01:18:20;3.70;;;3.40;;
13102;SDS011;52970;46.752;17.108;2022-07-04T01:20:46;3.40;;;3.10;;
13102;SDS011;52970;46.752;17.108;2022-07-04T01:23:11;3.30;;;2.90;;
13102;SDS011;52970;46.752;17.108;2022-07-04T01:25:36;3.60;;;3.30;;
13102;SDS011;52970;46.752;17.108;2022-07-04T01:28:02;3.47;;;3.15;;
13102;SDS011;52970;46.752;17.108;2022-07-04T01:30:28;3.42;;;3.22;;
13102;SDS011;52970;46.752;17.108;2022-07-04T01:32:53;3.42;;;3.13;;
13102;SDS011;52970;46.752;17.108;2022-07-04T01:35:19;4.63;;;3.10;;
13102;SDS011;52970;46.752;17.108;2022-07-04T01:37:44;4.55;;;3.10;;
13102;SDS011;52970;46.752;17.108;2022-07-04T01:40:10;2.72;;;2.63;;
13102;SDS011;52970;46.752;17.108;2022-07-04T01:42:37;4.22;;;3.00;;
13102;SDS011;52970;46.752;17.108;2022-07-04T01:45:02;4.07;;;3.22;;
13102;SDS011;52970;46.752;17.108;2022-07-04T01:47:27;4.93;;;3.60;;
13102;SDS011;52970;46.752;17.108;2022-07-04T01:49:53;3.22;;;2.85;;
13102;SDS011;52970;46.752;17.108;2022-07-04T01:52:18;3.97;;;3.40;;
13102;SDS011;52970;46.752;17.108;2022-07-04T01:54:43;4.18;;;3.00;;
13102;SDS011;52970;46.752;17.108;2022-07-04T01:57:08;3.63;;;3.33;;
13102;SDS011;52970;46.752;17.108;2022-07-04T01:59:34;2.85;;;2.65;;
13102;SDS011;52970;46.752;17.108;2022-07-04T02:02:17;3.65;;;3.30;;
13102;SDS011;52970;46.752;17.108;2022-07-04T02:04:43;4.40;;;3.35;;
13102;SDS011;52970;46.752;17.108;2022-07-04T02:07:08;3.53;;;3.22;;
13102;SDS011;52970;46.752;17.108;2022-07-04T02:09:33;3.03;;;2.83;;
13102;SDS011;52970;46.752;17.108;2022-07-04T02:11:59;3.65;;;3.20;;
13102;SDS011;52970;46.752;17.108;2022-07-04T02:14:43;3.35;;;3.15;;
13102;SDS011;52970;46.752;17.108;2022-07-04T02:17:08;3.70;;;3.45;;
13102;SDS011;52970;46.752;17.108;2022-07-04T02:19:34;4.32;;;3.80;;
13102;SDS011;52970;46.752;17.108;2022-07-04T02:21:59;3.53;;;3.22;;
13102;SDS011;52970;46.752;17.108;2022-07-04T02:24:24;4.38;;;2.70;;
13102;SDS011;52970;46.752;17.108;2022-07-04T02:26:49;3.50;;;3.25;;
13102;SDS011;52970;46.752;17.108;2022-07-04T02:29:17;3.10;;;2.90;;
13102;SDS011;52970;46.752;17.108;2022-07-04T02:31:43;3.35;;;3.10;;
13102;SDS011;52970;46.752;17.108;2022-07-04T02:34:08;3.50;;;3.20;;
13102;SDS011;52970;46.752;17.108;2022-07-04T02:36:33;3.53;;;3.30;;
13102;SDS011;52970;46.752;17.108;2022-07-04T02:38:58;3.80;;;3.50;;
13102;SDS011;52970;46.752;17.108;2022-07-04T02:41:24;3.47;;;3.08;;
13102;SDS011;52970;46.752;17.108;2022-07-04T02:43:49;3.83;;;3.17;;
13102;SDS011;52970;46.752;17.108;2022-07-04T02:46:14;4.32;;;3.20;;
13102;SDS011;52970;46.752;17.108;2022-07-04T02:48:39;3.22;;;2.90;;
13102;SDS011;52970;46.752;17.108;2022-07-04T02:51:05;4.75;;;3.08;;
13102;SDS011;52970;46.752;17.108;2022-07-04T02:53:30;3.50;;;3.20;;
13102;SDS011;52970;46.752;17.108;2022-07-04T02:55:55;3.58;;;3.15;;
13102;SDS011;52970;46.752;17.108;2022-07-04T02:58:20;3.90;;;3.58;;
13102;SDS011;52970;46.752;17.108;2022-07-04T03:00:46;4.03;;;3.13;;
13102;SDS011;52970;46.752;17.108;2022-07-04T03:03:11;3.80;;;3.47;;
13102;SDS011;52970;46.752;17.108;2022-07-04T03:05:37;3.30;;;2.85;;
13102;SDS011;52970;46.752;17.108;2022-07-04T03:08:02;3.30;;;3.00;;
13102;SDS011;52970;46.752;17.108;2022-07-04T03:10:27;4.00;;;3.20;;
13102;SDS011;52970;46.752;17.108;2022-07-04T03:12:52;3.53;;;3.20;;
13102;SDS011;52970;46.752;17.108;2022-07-04T03:15:17;3.25;;;2.95;;
13102;SDS011;52970;46.752;17.108;2022-07-04T03:17:43;7.85;;;3.20;;
13102;SDS011;52970;46.752;17.108;2022-07-04T03:20:08;3.47;;;3.15;;
13102;SDS011;52970;46.752;17.108;2022-07-04T03:22:34;4.22;;;3.83;;
13102;SDS011;52970;46.752;17.108;2022-07-04T03:24:59;3.15;;;2.95;;
13102;SDS011;52970;46.752;17.108;2022-07-04T03:27:24;4.10;;;3.40;;
13102;SDS011;52970;46.752;17.108;2022-07-04T03:29:49;3.75;;;3.47;;
13102;SDS011;52970;46.752;17.108;2022-07-04T03:32:15;3.75;;;3.45;;
13102;SDS011;52970;46.752;17.108;2022-07-04T03:34:40;4.30;;;3.45;;
13102;SDS011;52970;46.752;17.108;2022-07-04T03:37:05;4.35;;;3.45;;
13102;SDS011;52970;46.752;17.108;2022-07-04T03:39:30;4.68;;;3.05;;
13102;SDS011;52970;46.752;17.108;2022-07-04T03:41:56;3.70;;;3.40;;
13102;SDS011;52970;46.752;17.108;2022-07-04T03:44:21;3.67;;;3.03;;
13102;SDS011;52970;46.752;17.108;2022-07-04T03:46:46;5.53;;;3.60;;
13102;SDS011;52970;46.752;17.108;2022-07-04T03:49:11;4.60;;;3.40;;
13102;SDS011;52970;46.752;17.108;2022-07-04T03:51:37;5.50;;;3.40;;
13102;SDS011;52970;46.752;17.108;2022-07-04T03:54:02;4.63;;;3.50;;
13102;SDS011;52970;46.752;17.108;2022-07-04T03:56:27;3.55;;;3.28;;
13102;SDS011;52970;46.752;17.108;2022-07-04T03:58:53;4.63;;;4.22;;
13102;SDS011;52970;46.752;17.108;2022-07-04T04:01:18;4.15;;;3.78;;
13102;SDS011;52970;46.752;17.108;2022-07-04T04:03:44;4.35;;;3.65;;
13102;SDS011;52970;46.752;17.108;2022-07-04T04:06:28;5.15;;;4.15;;
13102;SDS011;52970;46.752;17.108;2022-07-04T04:08:53;11.32;;;4.15;;
13102;SDS011;52970;46.752;17.108;2022-07-04T04:11:18;6.47;;;4.10;;
13102;SDS011;52970;46.752;17.108;2022-07-04T04:13:44;6.15;;;4.60;;
13102;SDS011;52970;46.752;17.108;2022-07-04T04:16:09;4.43;;;4.03;;
13102;SDS011;52970;46.752;17.108;2022-07-04T04:18:34;6.93;;;4.15;;
13102;SDS011;52970;46.752;17.108;2022-07-04T04:21:00;5.30;;;3.63;;
13102;SDS011;52970;46.752;17.108;2022-07-04T04:23:25;4.90;;;4.20;;
13102;SDS011;52970;46.752;17.108;2022-07-04T04:25:51;5.30;;;3.80;;
13102;SDS011;52970;46.752;17.108;2022-07-04T04:28:16;5.50;;;3.47;;
13102;SDS011;52970;46.752;17.108;2022-07-04T04:30:41;4.80;;;4.10;;
13102;SDS011;52970;46.752;17.108;2022-07-04T04:33:06;4.07;;;3.60;;
13102;SDS011;52970;46.752;17.108;2022-07-04T04:35:31;4.10;;;3.70;;
13102;SDS011;52970;46.752;17.108;2022-07-04T04:37:57;4.03;;;3.70;;
13102;SDS011;52970;46.752;17.108;2022-07-04T04:40:23;8.60;;;4.40;;
13102;SDS011;52970;46.752;17.108;2022-07-04T04:42:48;4.28;;;3.80;;
13102;SDS011;52970;46.752;17.108;2022-07-04T04:45:13;5.63;;;3.70;;
13102;SDS011;52970;46.752;17.108;2022-07-04T04:47:38;4.88;;;4.40;;
13102;SDS011;52970;46.752;17.108;2022-07-04T04:50:04;4.93;;;4.07;;
13102;SDS011;52970;46.752;17.108;2022-07-04T04:52:30;4.53;;;4.13;;
13102;SDS011;52970;46.752;17.108;2022-07-04T04:54:56;5.38;;;4.30;;
13102;SDS011;52970;46.752;17.108;2022-07-04T04:57:21;4.30;;;3.90;;
13102;SDS011;52970;46.752;17.108;2022-07-04T04:59:46;5.25;;;3.95;;
13102;SDS011;52970;46.752;17.108;2022-07-04T05:02:11;5.65;;;4.28;;
13102;SDS011;52970;46.752;17.108;2022-07-04T05:04:37;5.35;;;4.30;;
13102;SDS011;52970;46.752;17.108;2022-07-04T05:07:02;4.57;;;4.18;;
13102;SDS011;52970;46.752;17.108;2022-07-04T05:09:27;4.60;;;4.20;;
13102;SDS011;52970;46.752;17.108;2022-07-04T05:11:52;4.63;;;3.83;;
13102;SDS011;52970;46.752;17.108;2022-07-04T05:14:18;5.55;;;4.53;;
13102;SDS011;52970;46.752;17.108;2022-07-04T05:16:43;4.72;;;3.85;;
13102;SDS011;52970;46.752;17.108;2022-07-04T05:19:08;4.70;;;4.30;;
13102;SDS011;52970;46.752;17.108;2022-07-04T05:21:34;6.07;;;4.78;;
13102;SDS011;52970;46.752;17.108;2022-07-04T05:23:59;5.05;;;4.38;;
13102;SDS011;52970;46.752;17.108;2022-07-04T05:26:25;6.20;;;4.40;;
13102;SDS011;52970;46.752;17.108;2022-07-04T05:28:50;5.82;;;4.90;;
13102;SDS011;52970;46.752;17.108;2022-07-04T05:31:15;5.68;;;4.78;;
13102;SDS011;52970;46.752;17.108;2022-07-04T05:33:40;5.95;;;4.53;;
13102;SDS011;52970;46.752;17.108;2022-07-04T05:36:06;5.35;;;4.80;;
13102;SDS011;52970;46.752;17.108;2022-07-04T05:38:34;5.85;;;4.85;;
13102;SDS011;52970;46.752;17.108;2022-07-04T05:41:00;5.75;;;4.53;;
13102;SDS011;52970;46.752;17.108;2022-07-04T05:43:26;5.78;;;4.53;;
13102;SDS011;52970;46.752;17.108;2022-07-04T05:45:51;5.65;;;5.10;;
13102;SDS011;52970;46.752;17.108;2022-07-04T05:48:17;5.40;;;4.90;;
13102;SDS011;52970;46.752;17.108;2022-07-04T05:50:42;7.85;;;4.70;;
13102;SDS011;52970;46.752;17.108;2022-07-04T05:53:07;4.97;;;4.57;;
13102;SDS011;52970;46.752;17.108;2022-07-04T05:55:33;5.93;;;5.43;;
13102;SDS011;52970;46.752;17.108;2022-07-04T05:57:59;5.38;;;4.75;;
13102;SDS011;52970;46.752;17.108;2022-07-04T06:00:25;5.30;;;4.85;;
13102;SDS011;52970;46.752;17.108;2022-07-04T06:02:50;7.60;;;5.57;;
13102;SDS011;52970;46.752;17.108;2022-07-04T06:05:15;6.47;;;5.88;;
13102;SDS011;52970;46.752;17.108;2022-07-04T06:07:40;5.47;;;4.97;;
13102;SDS011;52970;46.752;17.108;2022-07-04T06:10:06;5.15;;;4.75;;
13102;SDS011;52970;46.752;17.108;2022-07-04T06:12:31;6.45;;;4.82;;
13102;SDS011;52970;46.752;17.108;2022-07-04T06:14:57;7.65;;;4.40;;
13102;SDS011;52970;46.752;17.108;2022-07-04T06:17:22;6.05;;;4.90;;
13102;SDS011;52970;46.752;17.108;2022-07-04T06:19:47;5.22;;;4.07;;
13102;SDS011;52970;46.752;17.108;2022-07-04T06:22:12;5.25;;;4.72;;
13102;SDS011;52970;46.752;17.108;2022-07-04T06:24:38;5.47;;;4.63;;
13102;SDS011;52970;46.752;17.108;2022-07-04T06:27:03;4.82;;;4.25;;
13102;SDS011;52970;46.752;17.108;2022-07-04T06:29:29;4.03;;;3.63;;
13102;SDS011;52970;46.752;17.108;2022-07-04T06:31:54;4.32;;;4.03;;
13102;SDS011;52970;46.752;17.108;2022-07-04T06:34:19;3.88;;;3.58;;
13102;SDS011;52970;46.752;17.108;2022-07-04T06:37:03;5.40;;;3.92;;
13102;SDS011;52970;46.752;17.108;2022-07-04T06:39:28;4.60;;;4.20;;
13102;SDS011;52970;46.752;17.108;2022-07-04T06:41:54;6.15;;;4.43;;
13102;SDS011;52970;46.752;17.108;2022-07-04T06:44:19;6.85;;;4.85;;
13102;SDS011;52970;46.752;17.108;2022-07-04T06:46:44;5.13;;;4.53;;
13102;SDS011;52970;46.752;17.108;2022-07-04T06:49:11;7.28;;;4.38;;
13102;SDS011;52970;46.752;17.108;2022-07-04T06:51:36;5.88;;;4.18;;
13102;SDS011;52970;46.752;17.108;2022-07-04T06:54:01;3.85;;;3.55;;
13102;SDS011;52970;46.752;17.108;2022-07-04T06:56:26;4.20;;;3.80;;
13102;SDS011;52970;46.752;17.108;2022-07-04T06:58:52;5.57;;;4.00;;
13102;SDS011;52970;46.752;17.108;2022-07-04T07:01:17;4.95;;;4.30;;
13102;SDS011;52970;46.752;17.108;2022-07-04T07:03:42;4.15;;;3.83;;
13102;SDS011;52970;46.752;17.108;2022-07-04T07:06:08;5.43;;;3.92;;
13102;SDS011;52970;46.752;17.108;2022-07-04T07:08:33;3.95;;;3.65;;
13102;SDS011;52970;46.752;17.108;2022-07-04T07:10:58;4.65;;;3.95;;
13102;SDS011;52970;46.752;17.108;2022-07-04T07:13:38;4.28;;;3.88;;
13102;SDS011;52970;46.752;17.108;2022-07-04T07:16:04;4.78;;;3.65;;
13102;SDS011;52970;46.752;17.108;2022-07-04T07:18:29;4.32;;;3.92;;
13102;SDS011;52970;46.752;17.108;2022-07-04T07:20:57;6.43;;;4.15;;
13102;SDS011;52970;46.752;17.108;2022-07-04T07:23:22;5.18;;;4.38;;
13102;SDS011;52970;46.752;17.108;2022-07-04T07:25:47;7.68;;;4.55;;
13102;SDS011;52970;46.752;17.108;2022-07-04T07:28:12;4.43;;;4.13;;
13102;SDS011;52970;46.752;17.108;2022-07-04T07:30:38;4.63;;;4.18;;
13102;SDS011;52970;46.752;17.108;2022-07-04T07:33:03;4.35;;;3.63;;
13102;SDS011;52970;46.752;17.108;2022-07-04T07:35:29;4.30;;;3.80;;
13102;SDS011;52970;46.752;17.108;2022-07-04T07:37:54;4.82;;;3.88;;
13102;SDS011;52970;46.752;17.108;2022-07-04T07:40:19;5.70;;;3.85;;
13102;SDS011;52970;46.752;17.108;2022-07-04T07:42:44;4.30;;;3.90;;
13102;SDS011;52970;46.752;17.108;2022-07-04T07:45:10;5.03;;;4.00;;
13102;SDS011;52970;46.752;17.108;2022-07-04T07:47:35;7.18;;;4.05;;
13102;SDS011;52970;46.752;17.108;2022-07-04T07:50:00;4.93;;;3.93;;
13102;SDS011;52970;46.752;17.108;2022-07-04T07:52:28;6.00;;;4.07;;
13102;SDS011;52970;46.752;17.108;2022-07-04T07:54:53;5.28;;;3.95;;
13102;SDS011;52970;46.752;17.108;2022-07-04T07:57:18;7.53;;;4.13;;
13102;SDS011;52970;46.752;17.108;2022-07-04T07:59:44;4.07;;;3.75;;
13102;SDS011;52970;46.752;17.108;2022-07-04T08:02:09;5.20;;;3.95;;
13102;SDS011;52970;46.752;17.108;2022-07-04T08:04:34;4.30;;;3.90;;
13102;SDS011;52970;46.752;17.108;2022-07-04T08:07:03;4.47;;;4.07;;
13102;SDS011;52970;46.752;17.108;2022-07-04T08:09:29;4.45;;;4.10;;
13102;SDS011;52970;46.752;17.108;2022-07-04T08:11:54;4.38;;;3.83;;
13102;SDS011;52970;46.752;17.108;2022-07-04T08:14:19;4.82;;;3.70;;
13102;SDS011;52970;46.752;17.108;2022-07-04T08:16:45;5.43;;;3.80;;
13102;SDS011;52970;46.752;17.108;2022-07-04T08:19:10;4.75;;;3.47;;
13102;SDS011;52970;46.752;17.108;2022-07-04T08:21:35;4.40;;;3.57;;
13102;SDS011;52970;46.752;17.108;2022-07-04T08:24:00;4.40;;;3.50;;
13102;SDS011;52970;46.752;17.108;2022-07-04T08:26:26;7.10;;;4.05;;
13102;SDS011;52970;46.752;17.108;2022-07-04T08:28:51;5.40;;;3.85;;
13102;SDS011;52970;46.752;17.108;2022-07-04T08:31:17;4.35;;;3.85;;
13102;SDS011;52970;46.752;17.108;2022-07-04T08:33:43;4.38;;;3.70;;
13102;SDS011;52970;46.752;17.108;2022-07-04T08:36:08;4.22;;;3.60;;
13102;SDS011;52970;46.752;17.108;2022-07-04T08:38:33;3.83;;;3.20;;
13102;SDS011;52970;46.752;17.108;2022-07-04T08:40:59;3.50;;;3.20;;
13102;SDS011;52970;46.752;17.108;2022-07-04T08:43:27;5.43;;;3.55;;
13102;SDS011;52970;46.752;17.108;2022-07-04T08:45:54;5.90;;;3.95;;
13102;SDS011;52970;46.752;17.108;2022-07-04T08:48:21;3.63;;;3.30;;
13102;SDS011;52970;46.752;17.108;2022-07-04T08:50:49;3.60;;;3.30;;
13102;SDS011;52970;46.752;17.108;2022-07-04T08:53:26;5.75;;;3.30;;
13102;SDS011;52970;46.752;17.108;2022-07-04T08:55:52;5.15;;;3.17;;
13102;SDS011;52970;46.752;17.108;2022-07-04T08:58:36;4.85;;;3.42;;
13102;SDS011;52970;46.752;17.108;2022-07-04T09:01:06;4.13;;;3.17;;
13102;SDS011;52970;46.752;17.108;2022-07-04T09:03:32;4.28;;;3.40;;
13102;SDS011;52970;46.752;17.108;2022-07-04T09:05:57;4.47;;;3.60;;
13102;SDS011;52970;46.752;17.108;2022-07-04T09:08:23;4.88;;;3.58;;
13102;SDS011;52970;46.752;17.108;2022-07-04T09:10:49;4.32;;;3.30;;
13102;SDS011;52970;46.752;17.108;2022-07-04T09:13:15;3.72;;;3.05;;
13102;SDS011;52970;46.752;17.108;2022-07-04T09:15:42;5.20;;;3.55;;
13102;SDS011;52970;46.752;17.108;2022-07-04T09:20:45;5.68;;;3.10;;
13102;SDS011;52970;46.752;17.108;2022-07-04T09:23:20;6.50;;;3.88;;
13102;SDS011;52970;46.752;17.108;2022-07-04T09:25:48;3.40;;;3.10;;
13102;SDS011;52970;46.752;17.108;2022-07-04T09:28:27;5.78;;;3.40;;
13102;SDS011;52970;46.752;17.108;2022-07-04T09:30:53;2.95;;;2.70;;
13102;SDS011;52970;46.752;17.108;2022-07-04T09:33:18;4.88;;;3.60;;
13102;SDS011;52970;46.752;17.108;2022-07-04T09:35:44;5.57;;;3.55;;
13102;SDS011;52970;46.752;17.108;2022-07-04T09:38:09;4.65;;;3.45;;
13102;SDS011;52970;46.752;17.108;2022-07-04T09:40:38;4.05;;;3.20;;
13102;SDS011;52970;46.752;17.108;2022-07-04T09:43:22;3.70;;;3.40;;
13102;SDS011;52970;46.752;17.108;2022-07-04T09:45:58;4.35;;;3.17;;
13102;SDS011;52970;46.752;17.108;2022-07-04T09:48:23;3.92;;;3.28;;
13102;SDS011;52970;46.752;17.108;2022-07-04T09:50:49;5.25;;;3.10;;
13102;SDS011;52970;46.752;17.108;2022-07-04T09:53:15;4.20;;;3.30;;
13102;SDS011;52970;46.752;17.108;2022-07-04T09:55:43;5.15;;;3.88;;
13102;SDS011;52970;46.752;17.108;2022-07-04T09:58:16;6.80;;;3.60;;
13102;SDS011;52970;46.752;17.108;2022-07-04T10:00:42;4.77;;;3.40;;
13102;SDS011;52970;46.752;17.108;2022-07-04T10:03:27;5.13;;;3.50;;
13102;SDS011;52970;46.752;17.108;2022-07-04T10:08:27;5.18;;;3.60;;
13102;SDS011;52970;46.752;17.108;2022-07-04T10:10:56;4.38;;;3.38;;
13102;SDS011;52970;46.752;17.108;2022-07-04T10:13:21;4.45;;;3.33;;
13102;SDS011;52970;46.752;17.108;2022-07-04T10:15:47;4.40;;;3.40;;
13102;SDS011;52970;46.752;17.108;2022-07-04T10:18:12;4.70;;;3.38;;
13102;SDS011;52970;46.752;17.108;2022-07-04T10:20:38;5.18;;;3.13;;
13102;SDS011;52970;46.752;17.108;2022-07-04T10:23:03;3.13;;;2.90;;
13102;SDS011;52970;46.752;17.108;2022-07-04T10:25:28;4.00;;;2.92;;
13102;SDS011;52970;46.752;17.108;2022-07-04T10:27:54;4.03;;;3.47;;
13102;SDS011;52970;46.752;17.108;2022-07-04T10:30:27;4.07;;;2.97;;
13102;SDS011;52970;46.752;17.108;2022-07-04T10:32:53;3.88;;;3.20;;
13102;SDS011;52970;46.752;17.108;2022-07-04T10:35:46;4.03;;;3.40;;
13102;SDS011;52970;46.752;17.108;2022-07-04T10:38:05;4.05;;;3.10;;
13102;SDS011;52970;46.752;17.108;2022-07-04T10:41:05;3.80;;;3.42;;
13102;SDS011;52970;46.752;17.108;2022-07-04T10:48:31;4.13;;;3.33;;
13102;SDS011;52970;46.752;17.108;2022-07-04T10:51:00;4.47;;;3.42;;
13102;SDS011;52970;46.752;17.108;2022-07-04T10:53:26;4.63;;;3.35;;
13102;SDS011;52970;46.752;17.108;2022-07-04T10:55:51;3.35;;;3.05;;
13102;SDS011;52970;46.752;17.108;2022-07-04T11:01:10;4.03;;;2.97;;
13102;SDS011;52970;46.752;17.108;2022-07-04T11:03:43;5.53;;;3.53;;
13102;SDS011;52970;46.752;17.108;2022-07-04T11:06:43;3.20;;;2.90;;
13102;SDS011;52970;46.752;17.108;2022-07-04T11:16:57;4.47;;;3.53;;
13102;SDS011;52970;46.752;17.108;2022-07-04T11:19:23;4.05;;;3.30;;
13102;SDS011;52970;46.752;17.108;2022-07-04T11:21:53;4.65;;;3.63;;
13102;SDS011;52970;46.752;17.108;2022-07-04T11:24:18;4.70;;;3.45;;
13102;SDS011;52970;46.752;17.108;2022-07-04T11:26:44;3.40;;;3.10;;
13102;SDS011;52970;46.752;17.108;2022-07-04T11:29:12;6.20;;;3.30;;
13102;SDS011;52970;46.752;17.108;2022-07-04T11:31:42;3.75;;;3.38;;
13102;SDS011;52970;46.752;17.108;2022-07-04T11:34:07;6.53;;;3.70;;
13102;SDS011;52970;46.752;17.108;2022-07-04T11:36:33;4.32;;;3.22;;
13102;SDS011;52970;46.752;17.108;2022-07-04T11:41:40;4.80;;;3.40;;
13102;SDS011;52970;46.752;17.108;2022-07-04T11:44:42;3.95;;;3.17;;
13102;SDS011;52970;46.752;17.108;2022-07-04T11:47:33;7.22;;;3.10;;
13102;SDS011;52970;46.752;17.108;2022-07-04T11:50:00;3.70;;;3.10;;
13102;SDS011;52970;46.752;17.108;2022-07-04T11:52:26;6.10;;;3.63;;
13102;SDS011;52970;46.752;17.108;2022-07-04T11:54:52;4.43;;;3.33;;
13102;SDS011;52970;46.752;17.108;2022-07-04T11:57:23;4.28;;;3.05;;
13102;SDS011;52970;46.752;17.108;2022-07-04T12:00:31;4.38;;;3.08;;
13102;SDS011;52970;46.752;17.108;2022-07-04T12:02:37;3.42;;;2.72;;
13102;SDS011;52970;46.752;17.108;2022-07-04T12:05:04;4.03;;;2.83;;
13102;SDS011;52970;46.752;17.108;2022-07-04T12:07:30;3.03;;;2.60;;
13102;SDS011;52970;46.752;17.108;2022-07-04T12:13:16;4.03;;;2.50;;
13102;SDS011;52970;46.752;17.108;2022-07-04T12:15:39;3.05;;;2.72;;
13102;SDS011;52970;46.752;17.108;2022-07-04T12:18:13;2.63;;;2.40;;
13102;SDS011;52970;46.752;17.108;2022-07-04T12:20:40;4.80;;;2.60;;
13102;SDS011;52970;46.752;17.108;2022-07-04T12:23:05;5.23;;;3.30;;
13102;SDS011;52970;46.752;17.108;2022-07-04T12:25:31;4.77;;;3.10;;
13102;SDS011;52970;46.752;17.108;2022-07-04T12:30:23;5.55;;;3.28;;
13102;SDS011;52970;46.752;17.108;2022-07-04T12:32:50;2.92;;;2.70;;
13102;SDS011;52970;46.752;17.108;2022-07-04T12:35:34;2.50;;;2.30;;
13102;SDS011;52970;46.752;17.108;2022-07-04T12:38:09;4.63;;;2.65;;
13102;SDS011;52970;46.752;17.108;2022-07-04T12:40:35;4.38;;;2.92;;
13102;SDS011;52970;46.752;17.108;2022-07-04T12:43:00;3.95;;;2.60;;
13102;SDS011;52970;46.752;17.108;2022-07-04T12:45:26;2.85;;;2.47;;
13102;SDS011;52970;46.752;17.108;2022-07-04T12:48:11;2.75;;;2.55;;
13102;SDS011;52970;46.752;17.108;2022-07-04T12:50:38;3.10;;;2.90;;
13102;SDS011;52970;46.752;17.108;2022-07-04T12:53:03;4.70;;;2.90;;
13102;SDS011;52970;46.752;17.108;2022-07-04T12:55:29;4.10;;;2.90;;
13102;SDS011;52970;46.752;17.108;2022-07-04T12:57:54;5.22;;;2.97;;
13102;SDS011;52970;46.752;17.108;2022-07-04T13:00:20;4.35;;;3.10;;
13102;SDS011;52970;46.752;17.108;2022-07-04T13:02:45;3.50;;;3.05;;
13102;SDS011;52970;46.752;17.108;2022-07-04T13:05:10;3.17;;;2.90;;
13102;SDS011;52970;46.752;17.108;2022-07-04T13:07:36;4.70;;;2.92;;
13102;SDS011;52970;46.752;17.108;2022-07-04T13:10:01;3.75;;;3.00;;
13102;SDS011;52970;46.752;17.108;2022-07-04T13:12:26;3.10;;;2.90;;
13102;SDS011;52970;46.752;17.108;2022-07-04T13:14:55;3.78;;;3.47;;
13102;SDS011;52970;46.752;17.108;2022-07-04T13:17:20;3.63;;;3.20;;
13102;SDS011;52970;46.752;17.108;2022-07-04T13:19:46;4.93;;;3.40;;
13102;SDS011;52970;46.752;17.108;2022-07-04T13:22:11;3.08;;;2.88;;
13102;SDS011;52970;46.752;17.108;2022-07-04T13:24:37;4.28;;;3.58;;
13102;SDS011;52970;46.752;17.108;2022-07-04T13:27:02;3.22;;;3.03;;
13102;SDS011;52970;46.752;17.108;2022-07-04T13:29:28;3.50;;;3.20;;
13102;SDS011;52970;46.752;17.108;2022-07-04T13:31:53;3.60;;;3.20;;
13102;SDS011;52970;46.752;17.108;2022-07-04T13:34:18;3.00;;;2.70;;
13102;SDS011;52970;46.752;17.108;2022-07-04T13:36:44;4.00;;;3.10;;
13102;SDS011;52970;46.752;17.108;2022-07-04T13:39:10;11.15;;;3.10;;
13102;SDS011;52970;46.752;17.108;2022-07-04T13:41:36;2.92;;;2.75;;
13102;SDS011;52970;46.752;17.108;2022-07-04T13:44:02;3.10;;;2.80;;
13102;SDS011;52970;46.752;17.108;2022-07-04T13:46:27;3.50;;;3.08;;
13102;SDS011;52970;46.752;17.108;2022-07-04T13:48:53;3.28;;;2.97;;
13102;SDS011;52970;46.752;17.108;2022-07-04T13:51:18;3.53;;;3.08;;
13102;SDS011;52970;46.752;17.108;2022-07-04T13:53:43;4.40;;;3.00;;
13102;SDS011;52970;46.752;17.108;2022-07-04T13:56:09;3.38;;;2.60;;
13102;SDS011;52970;46.752;17.108;2022-07-04T13:58:34;3.33;;;3.05;;
13102;SDS011;52970;46.752;17.108;2022-07-04T14:00:59;4.10;;;3.00;;
13102;SDS011;52970;46.752;17.108;2022-07-04T14:03:24;4.27;;;2.97;;
13102;SDS011;52970;46.752;17.108;2022-07-04T14:05:50;3.17;;;2.97;;
13102;SDS011;52970;46.752;17.108;2022-07-04T14:08:15;2.90;;;2.70;;
13102;SDS011;52970;46.752;17.108;2022-07-04T14:10:40;4.72;;;3.33;;
13102;SDS011;52970;46.752;17.108;2022-07-04T14:13:06;3.97;;;2.75;;
13102;SDS011;52970;46.752;17.108;2022-07-04T14:15:31;3.40;;;3.10;;
13102;SDS011;52970;46.752;17.108;2022-07-04T14:17:56;3.70;;;3.00;;
13102;SDS011;52970;46.752;17.108;2022-07-04T14:20:22;3.08;;;2.88;;
13102;SDS011;52970;46.752;17.108;2022-07-04T14:22:47;4.17;;;2.90;;
13102;SDS011;52970;46.752;17.108;2022-07-04T14:25:12;2.92;;;2.40;;
13102;SDS011;52970;46.752;17.108;2022-07-04T14:27:37;3.33;;;3.03;;
13102;SDS011;52970;46.752;17.108;2022-07-04T14:30:03;3.93;;;3.20;;
13102;SDS011;52970;46.752;17.108;2022-07-04T14:32:29;5.18;;;3.55;;
13102;SDS011;52970;46.752;17.108;2022-07-04T14:34:54;3.55;;;3.25;;
13102;SDS011;52970;46.752;17.108;2022-07-04T14:37:19;3.47;;;3.17;;
13102;SDS011;52970;46.752;17.108;2022-07-04T14:39:45;5.20;;;3.75;;
13102;SDS011;52970;46.752;17.108;2022-07-04T14:42:10;6.03;;;4.80;;
13102;SDS011;52970;46.752;17.108;2022-07-04T14:44:36;5.33;;;4.83;;
13102;SDS011;52970;46.752;17.108;2022-07-04T14:47:06;4.50;;;3.40;;
13102;SDS011;52970;46.752;17.108;2022-07-04T14:49:31;5.57;;;3.40;;
13102;SDS011;52970;46.752;17.108;2022-07-04T14:51:56;5.63;;;2.95;;
13102;SDS011;52970;46.752;17.108;2022-07-04T14:54:25;11.00;;;3.50;;
13102;SDS011;52970;46.752;17.108;2022-07-04T14:56:50;4.20;;;3.17;;
13102;SDS011;52970;46.752;17.108;2022-07-04T14:59:15;5.28;;;3.35;;